createdAt,value
2018-12-15T00:00:54.021Z,-2.70
2018-12-15T00:03:27.786Z,-2.70
2018-12-15T00:05:59.073Z,-2.70
2018-12-15T00:08:29.974Z,-2.80
2018-12-15T00:10:59.045Z,-2.80
2018-12-15T00:13:28.189Z,-2.80
2018-12-15T00:15:57.409Z,-2.80
2018-12-15T00:18:41.946Z,-2.80
2018-12-15T00:21:12.380Z,-2.80
2018-12-15T00:23:43.580Z,-2.80
2018-12-15T00:26:21.017Z,-2.80
2018-12-15T00:28:52.829Z,-2.80
2018-12-15T00:31:28.001Z,-2.80
2018-12-15T00:33:56.888Z,-2.80
2018-12-15T00:36:25.643Z,-2.80
2018-12-15T00:39:06.661Z,-2.80
2018-12-15T00:41:40.503Z,-2.90
2018-12-15T00:44:09.876Z,-2.90
2018-12-15T00:46:41.441Z,-2.90
2018-12-15T00:49:12.228Z,-2.90
2018-12-15T00:51:44.136Z,-2.90
2018-12-15T00:54:21.805Z,-3.00
2018-12-15T00:56:52.965Z,-3.00
2018-12-15T00:59:24.564Z,-3.00
2018-12-15T01:01:53.215Z,-3.00
2018-12-15T01:04:33.816Z,-3.00
2018-12-15T01:07:07.104Z,-3.00
2018-12-15T01:09:40.737Z,-3.00
2018-12-15T01:12:11.525Z,-3.00
2018-12-15T01:14:43.191Z,-2.90
2018-12-15T01:17:20.312Z,-3.00
2018-12-15T01:19:46.933Z,-2.90
2018-12-15T01:22:21.554Z,-2.90
2018-12-15T01:24:52.381Z,-2.90
2018-12-15T01:27:23.109Z,-3.00
2018-12-15T01:30:03.981Z,-3.00
2018-12-15T01:32:33.207Z,-2.90
2018-12-15T01:35:07.182Z,-2.90
2018-12-15T01:37:40.408Z,-2.90
2018-12-15T01:40:13.657Z,-3.00
2018-12-15T01:42:44.789Z,-3.00
2018-12-15T01:45:24.393Z,-3.00
2018-12-15T01:47:54.813Z,-3.00
2018-12-15T01:50:25.668Z,-3.00
2018-12-15T01:52:56.709Z,-3.00
2018-12-15T01:55:27.555Z,-3.00
2018-12-15T01:57:56.935Z,-3.00
2018-12-15T02:00:28.120Z,-3.00
2018-12-15T02:02:59.169Z,-3.00
2018-12-15T02:05:30.445Z,-3.00
2018-12-15T02:08:02.777Z,-3.00
2018-12-15T02:10:33.792Z,-3.00
2018-12-15T02:13:02.752Z,-3.00
2018-12-15T02:15:33.733Z,-3.00
2018-12-15T02:18:07.052Z,-3.00
2018-12-15T02:23:34.692Z,-3.00
2018-12-15T02:26:10.645Z,-3.00
2018-12-15T02:28:39.965Z,-3.10
2018-12-15T02:31:10.840Z,-3.10
2018-12-15T02:33:44.463Z,-3.10
2018-12-15T02:36:15.735Z,-3.10
2018-12-15T02:38:44.808Z,-3.10
2018-12-15T02:41:24.764Z,-3.10
2018-12-15T02:43:55.523Z,-3.10
2018-12-15T02:46:24.234Z,-3.10
2018-12-15T02:48:53.088Z,-3.10
2018-12-15T02:51:23.881Z,-3.10
2018-12-15T02:53:54.981Z,-3.20
2018-12-15T02:56:26.032Z,-3.10
2018-12-15T02:58:57.243Z,-3.10
2018-12-15T03:01:37.868Z,-3.10
2018-12-15T03:04:12.804Z,-3.10
2018-12-15T03:06:42.461Z,-3.10
2018-12-15T03:09:18.457Z,-3.10
2018-12-15T03:11:48.941Z,-3.10
2018-12-15T03:17:15.934Z,-3.10
2018-12-15T03:19:46.697Z,-3.10
2018-12-15T03:22:17.658Z,-3.10
2018-12-15T03:25:00.051Z,-3.10
2018-12-15T03:27:30.950Z,-3.00
2018-12-15T03:30:06.946Z,-3.00
2018-12-15T03:32:40.233Z,-3.00
2018-12-15T03:38:04.932Z,-3.10
2018-12-15T03:40:36.084Z,-3.10
2018-12-15T03:43:09.377Z,-3.00
2018-12-15T03:45:40.328Z,-3.00
2018-12-15T03:48:11.424Z,-3.10
2018-12-15T03:50:40.450Z,-3.00
2018-12-15T03:53:16.064Z,-3.10
2018-12-15T03:55:45.690Z,-3.10
2018-12-15T03:58:26.373Z,-3.10
2018-12-15T04:00:57.651Z,-3.00
2018-12-15T04:03:28.296Z,-3.00
2018-12-15T04:05:59.229Z,-3.10
2018-12-15T04:08:33.249Z,-3.00
2018-12-15T04:11:07.334Z,-3.00
2018-12-15T04:13:41.401Z,-3.10
2018-12-15T04:16:12.729Z,-3.10
2018-12-15T04:18:46.468Z,-3.00
2018-12-15T04:21:16.864Z,-3.10
2018-12-15T04:23:46.395Z,-3.10
2018-12-15T04:26:15.136Z,-3.10
2018-12-15T04:28:45.904Z,-3.10
2018-12-15T04:31:17.356Z,-3.00
2018-12-15T04:33:46.046Z,-3.00
2018-12-15T04:36:17.950Z,-3.00
2018-12-15T04:38:52.833Z,-3.10
2018-12-15T04:41:23.213Z,-3.10
2018-12-15T04:43:54.277Z,-3.00
2018-12-15T04:46:23.348Z,-3.00
2018-12-15T04:48:59.304Z,-3.00
2018-12-15T04:51:29.845Z,-3.00
2018-12-15T04:54:07.433Z,-3.00
2018-12-15T04:56:45.228Z,-3.10
2018-12-15T04:59:18.459Z,-3.00
2018-12-15T05:01:50.067Z,-3.00
2018-12-15T05:04:23.333Z,-3.10
2018-12-15T05:06:54.403Z,-3.00
2018-12-15T05:09:28.672Z,-3.00
2018-12-15T05:11:59.656Z,-3.00
2018-12-15T05:14:30.706Z,-3.00
2018-12-15T05:17:00.193Z,-3.00
2018-12-15T05:19:33.394Z,-3.00
2018-12-15T05:22:04.913Z,-3.00
2018-12-15T05:24:35.969Z,-3.00
2018-12-15T05:27:09.168Z,-3.00
2018-12-15T05:29:39.560Z,-3.00
2018-12-15T05:32:10.457Z,-3.00
2018-12-15T05:34:42.110Z,-3.00
2018-12-15T05:37:13.429Z,-3.00
2018-12-15T05:39:44.530Z,-3.00
2018-12-15T05:42:13.547Z,-2.90
2018-12-15T05:44:51.404Z,-2.90
2018-12-15T05:47:21.875Z,-2.90
2018-12-15T05:50:02.444Z,-2.90
2018-12-15T05:52:37.589Z,-2.90
2018-12-15T05:55:12.062Z,-2.80
2018-12-15T05:57:42.808Z,-2.80
2018-12-15T06:00:16.876Z,-2.80
2018-12-15T06:02:45.666Z,-2.80
2018-12-15T06:07:46.800Z,-2.80
2018-12-15T06:10:17.876Z,-2.80
2018-12-15T06:12:52.716Z,-2.80
2018-12-15T06:15:23.104Z,-2.80
2018-12-15T06:17:53.813Z,-2.80
2018-12-15T06:20:24.263Z,-2.80
2018-12-15T06:22:55.249Z,-2.80
2018-12-15T06:25:33.389Z,-2.70
2018-12-15T06:28:04.712Z,-2.70
2018-12-15T06:30:42.116Z,-2.70
2018-12-15T06:33:13.003Z,-2.70
2018-12-15T06:35:43.573Z,-2.70
2018-12-15T06:38:17.584Z,-2.70
2018-12-15T06:40:46.770Z,-2.70
2018-12-15T06:43:16.100Z,-2.70
2018-12-15T06:45:53.830Z,-2.70
2018-12-15T06:48:25.436Z,-2.70
2018-12-15T06:51:00.072Z,-2.70
2018-12-15T06:53:34.178Z,-2.80
2018-12-15T06:56:07.829Z,-2.70
2018-12-15T06:58:41.493Z,-2.80
2018-12-15T07:01:14.909Z,-2.80
2018-12-15T07:03:48.082Z,-2.80
2018-12-15T07:06:19.335Z,-2.80
2018-12-15T07:11:32.259Z,-2.80
2018-12-15T07:14:03.325Z,-2.80
2018-12-15T07:16:34.961Z,-2.80
2018-12-15T07:19:08.316Z,-2.80
2018-12-15T07:21:42.792Z,-2.80
2018-12-15T07:24:14.325Z,-2.80
2018-12-15T07:26:47.968Z,-2.80
2018-12-15T07:29:18.537Z,-2.80
2018-12-15T07:31:49.652Z,-2.70
2018-12-15T07:34:27.532Z,-2.70
2018-12-15T07:36:57.660Z,-2.70
2018-12-15T07:39:28.532Z,-2.60
2018-12-15T07:41:59.808Z,-2.60
2018-12-15T07:44:30.971Z,-2.60
2018-12-15T07:47:06.393Z,-2.60
2018-12-15T07:49:39.757Z,-2.50
2018-12-15T07:52:11.449Z,-2.50
2018-12-15T07:54:41.121Z,-2.50
2018-12-15T07:57:11.812Z,-2.50
2018-12-15T07:59:40.819Z,-2.50
2018-12-15T08:02:12.121Z,-2.50
2018-12-15T08:04:42.683Z,-2.50
2018-12-15T08:09:47.888Z,-2.60
2018-12-15T08:12:29.496Z,-2.60
2018-12-15T08:15:03.104Z,-2.60
2018-12-15T08:17:36.605Z,-2.60
2018-12-15T08:20:08.445Z,-2.60
2018-12-15T08:22:38.154Z,-2.60
2018-12-15T08:25:08.975Z,-2.50
2018-12-15T08:27:42.915Z,-2.50
2018-12-15T08:30:17.104Z,-2.40
2018-12-15T08:32:46.174Z,-2.50
2018-12-15T08:35:24.452Z,-2.50
2018-12-15T08:37:55.235Z,-2.50
2018-12-15T08:40:23.902Z,-2.50
2018-12-15T08:42:55.428Z,-2.50
2018-12-15T08:45:32.945Z,-2.60
2018-12-15T08:48:03.372Z,-2.60
2018-12-15T08:50:34.533Z,-2.60
2018-12-15T08:53:05.808Z,-2.60
2018-12-15T08:55:40.295Z,-2.50
2018-12-15T08:58:14.653Z,-2.50
2018-12-15T09:00:45.804Z,-2.50
2018-12-15T09:03:14.915Z,-2.50
2018-12-15T09:05:55.224Z,-2.50
2018-12-15T09:08:25.748Z,-2.50
2018-12-15T09:10:59.724Z,-2.60
2018-12-15T09:13:30.804Z,-2.50
2018-12-15T09:16:01.566Z,-2.50
2018-12-15T09:18:32.701Z,-2.50
2018-12-15T09:21:06.253Z,-2.40
2018-12-15T09:23:35.509Z,-2.40
2018-12-15T09:26:12.850Z,-2.40
2018-12-15T09:28:41.788Z,-2.40
2018-12-15T09:31:19.713Z,-2.40
2018-12-15T09:33:51.503Z,-2.40
2018-12-15T09:36:22.132Z,-2.40
2018-12-15T09:38:56.567Z,-2.40
2018-12-15T09:41:27.377Z,-2.40
2018-12-15T09:44:09.492Z,-2.40
2018-12-15T09:46:38.673Z,-2.40
2018-12-15T09:49:18.497Z,-2.30
2018-12-15T09:51:48.236Z,-2.30
2018-12-15T09:54:18.889Z,-2.20
2018-12-15T09:56:49.776Z,-2.20
2018-12-15T09:59:29.884Z,-2.20
2018-12-15T10:02:01.036Z,-2.30
2018-12-15T10:04:32.292Z,-2.30
2018-12-15T10:07:01.374Z,-2.20
2018-12-15T10:09:39.172Z,-2.30
2018-12-15T10:12:10.498Z,-2.20
2018-12-15T10:14:41.923Z,-2.20
2018-12-15T10:17:19.690Z,-2.10
2018-12-15T10:19:53.740Z,-2.20
2018-12-15T10:22:25.107Z,-2.20
2018-12-15T10:25:03.431Z,-2.20
2018-12-15T10:27:34.209Z,-2.20
2018-12-15T10:30:11.721Z,-2.20
2018-12-15T10:32:47.914Z,-2.10
2018-12-15T10:35:19.040Z,-2.00
2018-12-15T10:37:49.892Z,-1.90
2018-12-15T10:40:18.671Z,-1.90
2018-12-15T10:42:47.600Z,-1.90
2018-12-15T10:45:23.589Z,-1.90
2018-12-15T10:47:54.021Z,-2.00
2018-12-15T10:50:34.517Z,-1.90
2018-12-15T10:53:05.123Z,-2.00
2018-12-15T10:55:38.540Z,-2.00
2018-12-15T10:58:08.944Z,-1.90
2018-12-15T11:00:48.863Z,-1.90
2018-12-15T11:03:20.025Z,-1.80
2018-12-15T11:05:58.929Z,-1.70
2018-12-15T11:08:27.717Z,-1.60
2018-12-15T11:10:56.784Z,-1.50
2018-12-15T11:13:27.174Z,-1.50
2018-12-15T11:16:05.015Z,-1.40
2018-12-15T11:18:34.090Z,-1.30
2018-12-15T11:21:04.994Z,-1.20
2018-12-15T11:23:36.379Z,-1.20
2018-12-15T11:26:05.308Z,-1.20
2018-12-15T11:28:36.293Z,-1.20
2018-12-15T11:31:11.067Z,-1.20
2018-12-15T11:33:40.681Z,-1.20
2018-12-15T11:36:11.948Z,-1.20
2018-12-15T11:38:43.335Z,-1.20
2018-12-15T11:41:11.995Z,-1.10
2018-12-15T11:43:43.001Z,-1.10
2018-12-15T11:46:14.096Z,-1.10
2018-12-15T11:48:43.380Z,-1.10
2018-12-15T11:51:17.296Z,-1.10
2018-12-15T11:53:46.521Z,-1.10
2018-12-15T11:56:18.592Z,-1.10
2018-12-15T11:58:53.556Z,-1.10
2018-12-15T12:01:26.846Z,-1.20
2018-12-15T12:03:57.976Z,-1.20
2018-12-15T12:06:31.501Z,-1.20
2018-12-15T12:09:00.557Z,-1.20
2018-12-15T12:11:31.893Z,-1.10
2018-12-15T12:14:02.651Z,-1.00
2018-12-15T12:16:33.654Z,-1.00
2018-12-15T12:19:11.516Z,-0.90
2018-12-15T12:21:45.644Z,-1.00
2018-12-15T12:24:16.537Z,-1.10
2018-12-15T12:26:45.504Z,-1.10
2018-12-15T12:29:27.887Z,-1.20
2018-12-15T12:31:57.421Z,-1.30
2018-12-15T12:34:28.005Z,-1.30
2018-12-15T12:37:05.856Z,-1.40
2018-12-15T12:39:39.793Z,-1.50
2018-12-15T12:42:11.225Z,-1.50
2018-12-15T12:44:41.881Z,-1.50
2018-12-15T12:47:12.939Z,-1.60
2018-12-15T12:49:44.304Z,-1.60
2018-12-15T12:52:19.813Z,-1.60
2018-12-15T12:54:49.096Z,-1.60
2018-12-15T12:57:22.804Z,-1.60
2018-12-15T12:59:54.005Z,-1.70
2018-12-15T13:02:29.740Z,-1.70
2018-12-15T13:05:00.136Z,-1.70
2018-12-15T13:07:33.332Z,-1.70
2018-12-15T13:10:02.131Z,-1.70
2018-12-15T13:12:31.258Z,-1.70
2018-12-15T13:15:09.496Z,-1.60
2018-12-15T13:20:12.567Z,-1.60
2018-12-15T13:22:41.837Z,-1.60
2018-12-15T13:25:12.369Z,-1.70
2018-12-15T13:27:50.105Z,-1.70
2018-12-15T13:30:25.001Z,-1.80
2018-12-15T13:32:55.490Z,-1.80
2018-12-15T13:35:29.347Z,-1.80
2018-12-15T13:37:59.728Z,-1.80
2018-12-15T13:40:30.820Z,-1.90
2018-12-15T13:43:02.188Z,-1.90
2018-12-15T13:45:33.013Z,-1.90
2018-12-15T13:48:10.961Z,-1.90
2018-12-15T13:50:41.526Z,-1.90
2018-12-15T13:53:12.469Z,-1.90
2018-12-15T13:55:41.773Z,-1.90
2018-12-15T13:58:13.427Z,-1.80
2018-12-15T14:00:43.946Z,-1.80
2018-12-15T14:03:12.916Z,-1.80
2018-12-15T14:05:41.922Z,-1.80
2018-12-15T14:08:13.593Z,-1.80
2018-12-15T14:10:50.784Z,-1.80
2018-12-15T14:13:21.198Z,-1.80
2018-12-15T14:16:00.409Z,-1.80
2018-12-15T14:20:59.104Z,-1.80
2018-12-15T14:23:31.338Z,-1.90
2018-12-15T14:26:03.853Z,-1.90
2018-12-15T14:28:34.628Z,-2.00
2018-12-15T14:31:03.536Z,-2.00
2018-12-15T14:33:32.504Z,-2.00
2018-12-15T14:36:01.373Z,-2.00
2018-12-15T14:38:32.620Z,-2.10
2018-12-15T14:41:03.336Z,-2.10
2018-12-15T14:43:32.436Z,-2.10
2018-12-15T14:46:01.352Z,-2.10
2018-12-15T14:48:31.724Z,-2.10
2018-12-15T14:51:07.745Z,-2.20
2018-12-15T14:53:38.777Z,-2.20
2018-12-15T14:56:16.440Z,-2.20
2018-12-15T14:58:49.673Z,-2.10
2018-12-15T15:01:23.348Z,-2.10
2018-12-15T15:03:53.738Z,-2.10
2018-12-15T15:06:25.910Z,-2.10
2018-12-15T15:08:57.251Z,-2.10
2018-12-15T15:11:31.996Z,-2.10
2018-12-15T15:14:01.285Z,-2.10
2018-12-15T15:16:32.303Z,-2.10
2018-12-15T15:19:06.144Z,-2.10
2018-12-15T15:24:05.597Z,-2.20
2018-12-15T15:26:35.244Z,-2.20
2018-12-15T15:29:15.119Z,-2.20
2018-12-15T15:31:45.713Z,-2.20
2018-12-15T15:34:16.975Z,-2.20
2018-12-15T15:36:47.858Z,-2.20
2018-12-15T15:39:18.836Z,-2.20
2018-12-15T15:41:49.917Z,-2.20
2018-12-15T15:44:25.917Z,-2.20
2018-12-15T15:46:56.913Z,-2.20
2018-12-15T15:49:27.965Z,-2.20
2018-12-15T15:51:59.061Z,-2.20
2018-12-15T15:54:30.057Z,-2.20
2018-12-15T15:57:00.989Z,-2.20
2018-12-15T15:59:32.800Z,-2.20
2018-12-15T16:02:05.958Z,-2.20
2018-12-15T16:04:36.397Z,-2.20
2018-12-15T16:07:15.459Z,-2.20
2018-12-15T16:09:48.605Z,-2.20
2018-12-15T16:12:18.974Z,-2.20
2018-12-15T16:14:49.842Z,-2.20
2018-12-15T16:17:27.745Z,-2.30
2018-12-15T16:19:58.853Z,-2.20
2018-12-15T16:25:01.838Z,-2.20
2018-12-15T16:27:30.993Z,-2.30
2018-12-15T16:30:09.417Z,-2.20
2018-12-15T16:32:40.309Z,-2.20
2018-12-15T16:35:11.476Z,-2.20
2018-12-15T16:37:40.284Z,-2.20
2018-12-15T16:40:12.474Z,-2.20
2018-12-15T16:42:43.314Z,-2.30
2018-12-15T16:45:14.417Z,-2.30
2018-12-15T16:47:45.269Z,-2.30
2018-12-15T16:50:16.676Z,-2.30
2018-12-15T16:52:50.001Z,-2.30
2018-12-15T16:55:25.833Z,-2.40
2018-12-15T16:57:56.796Z,-2.40
2018-12-15T17:00:27.585Z,-2.30
2018-12-15T17:02:58.565Z,-2.30
2018-12-15T17:05:40.225Z,-2.40
2018-12-15T17:08:17.544Z,-2.40
2018-12-15T17:10:48.673Z,-2.40
2018-12-15T17:13:19.646Z,-2.40
2018-12-15T17:15:50.620Z,-2.40
2018-12-15T17:18:21.317Z,-2.50
2018-12-15T17:20:57.333Z,-2.50
2018-12-15T17:25:57.821Z,-2.50
2018-12-15T17:28:31.361Z,-2.50
2018-12-15T17:31:00.425Z,-2.50
2018-12-15T17:33:31.121Z,-2.50
2018-12-15T17:38:54.571Z,-2.50
2018-12-15T17:41:33.423Z,-2.50
2018-12-15T17:44:02.728Z,-2.50
2018-12-15T17:46:39.388Z,-2.50
2018-12-15T17:49:10.385Z,-2.50
2018-12-15T17:51:40.810Z,-2.60
2018-12-15T17:54:11.538Z,-2.60
2018-12-15T17:56:49.381Z,-2.60
2018-12-15T17:59:19.748Z,-2.60
2018-12-15T18:01:50.850Z,-2.60
2018-12-15T18:04:25.281Z,-2.60
2018-12-15T18:06:56.304Z,-2.60
2018-12-15T18:09:29.300Z,-2.60
2018-12-15T18:11:59.955Z,-2.50
2018-12-15T18:14:40.889Z,-2.60
2018-12-15T18:17:12.140Z,-2.60
2018-12-15T18:19:43.304Z,-2.60
2018-12-15T18:22:14.282Z,-2.60
2018-12-15T18:29:52.752Z,-2.60
2018-12-15T18:32:24.055Z,-2.60
2018-12-15T18:34:58.028Z,-2.70
2018-12-15T18:37:29.200Z,-2.60
2018-12-15T18:40:00.291Z,-2.60
2018-12-15T18:42:29.141Z,-2.60
2018-12-15T18:45:00.121Z,-2.60
2018-12-15T18:47:29.216Z,-2.60
2018-12-15T18:50:00.147Z,-2.60
2018-12-15T18:52:31.360Z,-2.60
2018-12-15T18:55:09.344Z,-2.60
2018-12-15T18:57:41.093Z,-2.60
2018-12-15T19:00:12.323Z,-2.60
2018-12-15T19:02:43.412Z,-2.60
2018-12-15T19:05:14.694Z,-2.70
2018-12-15T19:07:46.027Z,-2.60
2018-12-15T19:10:23.073Z,-2.70
2018-12-15T19:12:56.854Z,-2.60
2018-12-15T19:15:25.940Z,-2.70
2018-12-15T19:17:59.589Z,-2.60
2018-12-15T19:20:30.666Z,-2.60
2018-12-15T19:23:01.870Z,-2.60
2018-12-15T19:25:35.123Z,-2.70
2018-12-15T19:28:03.775Z,-2.70
2018-12-15T19:35:39.545Z,-2.70
2018-12-15T19:38:13.367Z,-2.70
2018-12-15T19:40:43.832Z,-2.70
2018-12-15T19:43:15.218Z,-2.70
2018-12-15T19:45:46.924Z,-2.70
2018-12-15T19:48:16.029Z,-2.70
2018-12-15T19:50:46.680Z,-2.70
2018-12-15T19:53:17.681Z,-2.60
2018-12-15T19:55:52.576Z,-2.70
2018-12-15T19:58:23.909Z,-2.70
2018-12-15T20:00:54.924Z,-2.70
2018-12-15T20:03:25.345Z,-2.70
2018-12-15T20:06:05.984Z,-2.70
2018-12-15T20:08:37.616Z,-2.70
2018-12-15T20:11:09.825Z,-2.70
2018-12-15T20:13:40.736Z,-2.70
2018-12-15T20:16:10.456Z,-2.70
2018-12-15T20:18:46.243Z,-2.70
2018-12-15T20:21:17.416Z,-2.70
2018-12-15T20:23:46.437Z,-2.70
2018-12-15T20:26:22.389Z,-2.80
2018-12-15T20:28:53.664Z,-2.70
2018-12-15T20:31:25.064Z,-2.80
2018-12-15T20:36:25.437Z,-2.70
2018-12-15T20:38:56.418Z,-2.70
2018-12-15T20:41:30.472Z,-2.80
2018-12-15T20:44:00.187Z,-2.80
2018-12-15T20:46:33.376Z,-2.80
2018-12-15T20:49:04.455Z,-2.80
2018-12-15T20:51:33.860Z,-2.80
2018-12-15T20:54:07.182Z,-2.80
2018-12-15T20:56:38.462Z,-2.80
2018-12-15T20:59:09.312Z,-2.80
2018-12-15T21:01:38.928Z,-2.80
2018-12-15T21:04:10.198Z,-2.80
2018-12-15T21:06:41.280Z,-2.80
2018-12-15T21:09:12.368Z,-2.80
2018-12-15T21:11:43.320Z,-2.70
2018-12-15T21:14:14.247Z,-2.80
2018-12-15T21:16:45.048Z,-2.80
2018-12-15T21:19:14.101Z,-2.80
2018-12-15T21:21:49.489Z,-2.80
2018-12-15T21:24:18.812Z,-2.80
2018-12-15T21:26:49.780Z,-2.80
2018-12-15T21:29:20.744Z,-2.80
2018-12-15T21:31:56.908Z,-2.80
2018-12-15T21:34:28.401Z,-2.80
2018-12-15T21:36:59.513Z,-2.80
2018-12-15T21:39:30.712Z,-2.80
2018-12-15T21:42:02.010Z,-2.80
2018-12-15T21:44:42.705Z,-2.70
2018-12-15T21:47:13.737Z,-2.80
2018-12-15T21:49:44.156Z,-2.80
2018-12-15T21:52:15.230Z,-2.80
2018-12-15T21:54:55.837Z,-2.80
2018-12-15T21:57:27.135Z,-2.80
2018-12-15T22:00:05.424Z,-2.80
2018-12-15T22:02:36.614Z,-2.80
2018-12-15T22:05:05.419Z,-2.80
2018-12-15T22:07:35.906Z,-2.80
2018-12-15T22:10:13.605Z,-2.80
2018-12-15T22:12:44.825Z,-2.80
2018-12-15T22:15:18.692Z,-2.70
2018-12-15T22:17:50.082Z,-2.70
2018-12-15T22:20:20.752Z,-2.70
2018-12-15T22:22:54.379Z,-2.70
2018-12-15T22:25:24.724Z,-2.70
2018-12-15T22:27:55.551Z,-2.70
2018-12-15T22:30:26.645Z,-2.80
2018-12-15T22:32:55.905Z,-2.80
2018-12-15T22:35:26.794Z,-2.80
2018-12-15T22:37:57.587Z,-2.70
2018-12-15T22:40:28.599Z,-2.80
2018-12-15T22:42:59.750Z,-2.80
2018-12-15T22:45:37.761Z,-2.80
2018-12-15T22:48:08.111Z,-2.80
2018-12-15T22:50:42.264Z,-2.80
2018-12-15T22:53:11.313Z,-2.80
2018-12-15T22:55:45.160Z,-2.80
2018-12-15T23:01:10.865Z,-2.80
2018-12-15T23:03:41.478Z,-2.80
2018-12-15T23:06:19.080Z,-2.80
2018-12-15T23:08:50.107Z,-2.80
2018-12-15T23:11:23.740Z,-2.80
2018-12-15T23:13:54.916Z,-2.80
2018-12-15T23:16:26.367Z,-2.80
2018-12-15T23:18:56.920Z,-2.90
2018-12-15T23:21:27.936Z,-2.90
2018-12-15T23:23:59.774Z,-3.00
2018-12-15T23:26:30.232Z,-3.00
2018-12-15T23:29:03.925Z,-3.00
2018-12-15T23:31:35.095Z,-3.10
2018-12-15T23:34:03.995Z,-3.10
2018-12-15T23:39:31.060Z,-3.20
2018-12-15T23:42:05.444Z,-3.20
2018-12-15T23:44:36.666Z,-3.30
2018-12-15T23:47:08.224Z,-3.40
2018-12-15T23:49:40.078Z,-3.40
2018-12-15T23:52:13.723Z,-3.50
2018-12-15T23:54:47.080Z,-3.50
2018-12-15T23:57:18.534Z,-3.50
2018-12-15T23:59:52.313Z,-3.50
